Meteorología y climatología de Navarra
Datos de la estación - Meteo Navarra

Estación de Getadar GN

Altitud 710 m.


Datos desde el 11/10/2018 hasta el 12/10/2018 en horario solar
Los datos son PROVISIONALES

Anterior Página 1 de 1 Siguiente Descargar: Formato para Excel 2000 o superior   Formato csv   Formato para OpenOffice Calc
Fecha Temperatura Humedad relativa Radiación global Insolación Precipitación Velocidad viento 10 m Velocidad viento 10 m Dirección viento 10 m
ºC % W/m² s l/m² m/s km/h º
11/10/2018 0:00 12.8 88 0.0 0 0.0 1.4 5.1 144
11/10/2018 0:10 12.7 89 0.0 0 0.0 1.4 5.0 142
11/10/2018 0:20 12.7 90 0.0 0 0.0 1.5 5.2 165
11/10/2018 0:30 12.7 89 0.0 0 0.0 1.5 5.3 168
11/10/2018 0:40 12.6 90 0.0 0 0.0 1.4 4.9 168
11/10/2018 0:50 12.7 90 0.0 0 0.0 1.1 4.0 166
11/10/2018 1:00 12.8 90 0.0 0 0.0 0.7 2.6 166
11/10/2018 1:10 13.0 90 0.0 0 0.0 0.7 2.6 155
11/10/2018 1:20 12.9 90 0.0 0 0.0 0.5 1.9 148
11/10/2018 1:30 12.9 91 0.0 0 0.0 0.9 3.2 159
11/10/2018 1:40 12.8 91 0.0 0 0.0 0.9 3.1 150
11/10/2018 1:50 12.7 91 0.0 0 0.0 1.2 4.4 159
11/10/2018 2:00 12.8 91 0.0 0 0.0 1.0 3.5 154
11/10/2018 2:10 12.9 91 0.0 0 0.0 1.0 3.5 149
11/10/2018 2:20 13.0 91 0.0 0 0.0 1.4 4.9 151
11/10/2018 2:30 13.2 90 0.0 0 0.0 1.8 6.6 151
11/10/2018 2:40 13.4 89 0.0 0 0.0 1.6 5.8 148
11/10/2018 2:50 13.4 88 0.0 0 0.0 1.6 5.6 154
11/10/2018 3:00 13.4 88 0.0 0 0.0 1.9 6.7 154
11/10/2018 3:10 13.4 88 0.0 0 0.0 1.6 5.9 160
11/10/2018 3:20 13.4 88 0.0 0 0.0 1.5 5.3 155
11/10/2018 3:30 13.3 88 0.0 0 0.0 1.6 5.8 153
11/10/2018 3:40 13.5 87 0.0 0 0.0 1.9 6.9 148
11/10/2018 3:50 13.5 87 0.0 0 0.0 2.0 7.2 148
11/10/2018 4:00 13.4 87 0.0 0 0.0 1.8 6.6 142
11/10/2018 4:10 13.3 87 0.0 0 0.0 2.1 7.7 160
11/10/2018 4:20 13.0 88 0.0 0 0.0 2.1 7.5 162
11/10/2018 4:30 13.2 87 0.0 0 0.0 1.6 5.9 158
11/10/2018 4:40 13.1 87 0.0 0 0.0 1.4 5.0 154
11/10/2018 4:50 13.1 88 0.0 0 0.0 1.3 4.5 148
11/10/2018 5:00 12.8 89 0.0 0 0.0 0.9 3.4 144
11/10/2018 5:10 12.7 90 0.0 0 0.0 1.2 4.4 149
11/10/2018 5:20 12.7 91 0.0 0 0.0 1.2 4.4 152
11/10/2018 5:30 12.8 91 0.0 0 0.0 1.3 4.8 144
11/10/2018 5:40 12.7 91 0.0 0 0.0 1.0 3.7 151
11/10/2018 5:50 12.6 91 0.0 0 0.0 0.8 2.8 148
11/10/2018 6:00 12.5 92 0.0 0 0.0 0.9 3.1 144
11/10/2018 6:10 12.4 92 0.0 0 0.0 1.1 3.8 137
11/10/2018 6:20 12.3 93 16.1 0 0.0 1.1 4.0 156
11/10/2018 6:30 12.6 92 34.4 414 0.0 1.0 3.5 163
11/10/2018 6:40 12.6 92 59.1 600 0.0 1.2 4.4 142
11/10/2018 6:50 12.9 92 69.8 600 0.0 1.4 5.0 137
11/10/2018 7:00 13.1 91 54.0 152 0.0 1.4 5.0 141
11/10/2018 7:10 13.0 91 65.7 0 0.0 1.7 5.9 143
11/10/2018 7:20 13.1 90 73.3 0 0.0 1.9 6.9 152
11/10/2018 7:30 13.4 89 85.6 0 0.0 2.1 7.6 150
11/10/2018 7:40 13.7 88 85.8 0 0.0 2.2 7.8 150
11/10/2018 7:50 14.0 86 85.8 0 0.0 2.6 9.3 162
11/10/2018 8:00 14.2 85 101.6 0 0.0 2.7 9.5 155
11/10/2018 8:10 14.6 83 129.5 0 0.0 3.1 11.0 157
11/10/2018 8:20 14.8 83 162.7 12 0.0 2.8 10.0 150
11/10/2018 8:30 15.0 82 247.9 546 0.0 2.9 10.6 148
11/10/2018 8:40 15.8 79 473.2 600 0.0 3.3 11.9 147
11/10/2018 8:50 16.7 76 405.5 600 0.0 2.8 10.2 160
11/10/2018 9:00 16.5 76 278.7 586 0.0 3.2 11.3 158
11/10/2018 9:10 16.6 76 313.8 550 0.0 2.7 9.8 154
11/10/2018 9:20 16.7 76 246.2 174 0.0 2.9 10.3 145
11/10/2018 9:30 16.8 74 278.9 328 0.0 3.5 12.6 157
11/10/2018 9:40 16.9 74 243.9 92 0.0 2.9 10.5 139
11/10/2018 9:50 17.3 73 347.3 388 0.0 2.7 9.7 145
11/10/2018 10:00 17.8 70 364.1 298 0.0 3.7 13.2 153
11/10/2018 10:10 18.3 69 413.6 600 0.0 4.2 15.0 146
11/10/2018 10:20 18.4 68 388.0 420 0.0 3.8 13.7 139
11/10/2018 10:30 18.1 69 182.0 0 0.0 3.4 12.4 154
11/10/2018 10:40 17.8 69 150.8 0 0.0 4.6 16.4 162
11/10/2018 10:50 17.8 69 150.0 0 0.0 4.0 14.3 161
11/10/2018 11:00 17.7 69 114.5 0 0.0 4.4 15.7 159
11/10/2018 11:10 17.4 70 60.4 0 0.0 4.3 15.6 162
11/10/2018 11:20 17.0 73 44.9 0 0.0 3.6 13.1 161
11/10/2018 11:30 16.9 73 79.6 0 0.0 3.5 12.5 158
11/10/2018 11:40 17.1 72 75.6 0 0.0 3.3 12.0 158
11/10/2018 11:50 17.3 72 161.2 0 0.0 3.8 13.6 159
11/10/2018 12:00 17.5 71 101.9 0 0.0 4.4 15.8 151
11/10/2018 12:10 17.4 71 136.3 0 0.0 3.7 13.4 158
11/10/2018 12:20 17.3 72 144.8 0 0.0 3.4 12.1 159
11/10/2018 12:30 17.3 73 151.0 0 0.0 3.7 13.4 158
11/10/2018 12:40 17.4 73 173.6 0 0.0 3.5 12.6 148
11/10/2018 12:50 17.5 73 128.7 0 0.0 3.7 13.3 160
11/10/2018 13:00 17.5 72 114.5 0 0.0 3.3 12.0 151
11/10/2018 13:10 17.6 72 127.4 0 0.0 2.5 9.0 141
11/10/2018 13:20 17.8 72 126.6 0 0.0 2.7 9.7 154
11/10/2018 13:30 18.0 71 212.0 0 0.0 2.5 9.0 151
11/10/2018 13:40 18.3 70 280.8 134 0.0 2.8 10.2 155
11/10/2018 13:50 18.8 68 397.3 372 0.0 2.8 10.1 156
11/10/2018 14:00 18.8 68 185.1 0 0.0 3.2 11.7 156
11/10/2018 14:10 18.5 68 122.7 0 0.0 3.3 11.7 155
11/10/2018 14:20 18.5 68 182.0 16 0.0 3.1 11.0 160
11/10/2018 14:30 18.9 67 243.2 208 0.0 3.8 13.5 161
11/10/2018 14:40 18.7 68 165.9 44 0.0 3.9 14.1 153
11/10/2018 14:50 18.9 67 234.7 174 0.0 3.6 13.0 154
11/10/2018 15:00 19.3 66 339.7 372 0.0 3.6 12.8 158
11/10/2018 15:10 19.4 65 139.2 0 0.0 4.5 16.3 163
11/10/2018 15:20 19.1 65 70.9 0 0.0 4.5 16.3 163
11/10/2018 15:30 18.9 66 42.1 0 0.0 4.4 15.9 154
11/10/2018 15:40 18.8 66 26.8 0 0.0 2.7 9.6 149
11/10/2018 15:50 18.1 73 29.1 0 0.2 2.3 8.2 150
11/10/2018 16:00 17.4 76 26.9 0 0.1 2.6 9.3 156
11/10/2018 16:10 17.4 77 41.4 0 0.0 2.2 7.8 158
11/10/2018 16:20 17.8 74 54.0 0 0.0 2.3 8.4 157
11/10/2018 16:30 18.2 71 40.8 0 0.0 2.8 10.1 157
11/10/2018 16:40 18.3 71 48.6 0 0.0 3.4 12.1 168
11/10/2018 16:50 18.2 72 50.3 0 0.0 2.0 7.0 146
11/10/2018 17:00 18.2 72 37.0 0 0.0 2.1 7.6 154
11/10/2018 17:10 18.3 71 28.0 0 0.0 2.6 9.5 159
11/10/2018 17:20 18.3 71 13.6 0 0.0 2.0 7.3 156
11/10/2018 17:30 18.3 71 0.0 0 0.0 2.0 7.3 154
11/10/2018 17:40 18.1 72 0.0 0 0.0 2.0 7.2 152
11/10/2018 17:50 18.1 72 0.0 0 0.0 1.9 6.7 152
11/10/2018 18:00 17.9 73 0.0 0 0.0 1.7 6.0 147
11/10/2018 18:10 17.8 74 0.0 0 0.0 1.5 5.4 145
11/10/2018 18:20 17.6 75 0.0 0 0.0 1.3 4.5 143
11/10/2018 18:30 17.6 75 0.0 0 0.0 0.8 3.0 152
11/10/2018 18:40 17.5 75 0.0 0 0.0 1.0 3.6 159
11/10/2018 18:50 17.4 76 0.0 0 0.0 0.9 3.3 163
11/10/2018 19:00 17.4 77 0.0 0 0.0 1.2 4.2 154
11/10/2018 19:10 17.0 79 0.0 0 0.0 1.4 5.0 132
11/10/2018 19:20 16.7 80 0.0 0 0.0 1.1 3.9 141
11/10/2018 19:30 16.7 80 0.0 0 0.0 0.9 3.4 149
11/10/2018 19:40 16.8 80 0.0 0 0.0 1.0 3.6 144
11/10/2018 19:50 17.0 78 0.0 0 0.0 1.3 4.8 157
11/10/2018 20:00 17.0 78 0.0 0 0.0 1.2 4.2 142
11/10/2018 20:10 17.3 76 0.0 0 0.0 2.1 7.4 153
11/10/2018 20:20 17.5 75 0.0 0 0.0 1.7 6.3 149
11/10/2018 20:30 17.1 77 0.0 0 0.0 1.9 6.7 147
11/10/2018 20:40 17.1 77 0.0 0 0.0 1.7 6.0 153
11/10/2018 20:50 17.0 78 0.0 0 0.0 1.6 5.6 157
11/10/2018 21:00 16.9 78 0.0 0 0.0 2.6 9.4 160
11/10/2018 21:10 17.4 75 0.0 0 0.0 2.9 10.4 160
11/10/2018 21:20 17.6 74 0.0 0 0.0 3.2 11.6 160
11/10/2018 21:30 17.8 73 0.0 0 0.0 2.7 9.8 154
11/10/2018 21:40 17.8 73 0.0 0 0.0 3.1 11.1 159
11/10/2018 21:50 17.7 73 0.0 0 0.0 2.6 9.3 160
11/10/2018 22:00 17.6 73 0.0 0 0.0 2.6 9.5 164
11/10/2018 22:10 17.7 73 0.0 0 0.0 2.9 10.4 169
11/10/2018 22:20 17.5 74 0.0 0 0.0 2.8 9.9 163
11/10/2018 22:30 17.7 73 0.0 0 0.0 2.8 10.1 157
11/10/2018 22:40 17.7 73 0.0 0 0.0 2.3 8.1 156
11/10/2018 22:50 17.6 74 0.0 0 0.0 2.9 10.4 155
11/10/2018 23:00 17.8 73 0.0 0 0.0 3.0 10.7 151
11/10/2018 23:10 17.9 73 0.0 0 0.0 2.4 8.5 155
11/10/2018 23:20 17.8 73 0.0 0 0.0 2.6 9.4 160
11/10/2018 23:30 17.7 74 0.0 0 0.0 2.8 10.1 158
11/10/2018 23:40 17.6 74 0.0 0 0.0 2.7 9.6 164
11/10/2018 23:50 17.3 75 0.0 0 0.0 2.3 8.4 164
Anterior Página 1 de 1 Siguiente

NOTA: Tipo de datos según el color:
   - Valores diarios o 10 minutos correctos
   - Valores diarios calculados a partir de un número de datos 10 minutos menor que 144 y mayor que 120, o de un número de datos semihorarios menor que 48 y mayor que 40 (caso de las estaciones de Riegos de Navarra y del MARM)
   - Valores diez minutos estimados


Contacto        Enlaces        Aviso legal